VOE59FZ LFRS-LFMT
Flight info
| Callsign | VOE59FZ |
|---|---|
| Flight time | 1h 5m |
| Altitude | 29000 |
| Route | LUGEN UM184 TUPAR DCT CNA DCT SECHE/N0396F270 DCT GAI/N0353F190 G39 AFRIC G393 BRUSC |
| Aircraft | A319/M-SDE3FGHIRWY/LB1 |
Departure
| Time | 2026-04-26 07:37 |
|---|---|
| Airport | Nantes Atlantique Airport (LFRS) |
Arrival
| Time | 2026-04-26 08:42 |
|---|---|
| Airport | Montpellier-Méditerranée Airport (LFMT) |
| Time | Latitude | Longitude | Altitude | Speed | Heading |
|---|---|---|---|---|---|
| 2026-04-26 07:18 | 47.15360 | -1.60235 | 97 ft | 0 kts | 207° |
| 2026-04-26 07:26 | 47.15361 | -1.60234 | 97 ft | 1 kts | 207° |
| 2026-04-26 07:26 | 47.15375 | -1.60224 | 97 ft | 2 kts | 207° |
| 2026-04-26 07:26 | 47.15389 | -1.60217 | 97 ft | 2 kts | 176° |
| 2026-04-26 07:27 | 47.15404 | -1.60222 | 97 ft | 2 kts | 150° |
| 2026-04-26 07:27 | 47.15415 | -1.60236 | 97 ft | 2 kts | 123° |
| 2026-04-26 07:27 | 47.15421 | -1.60255 | 97 ft | 2 kts | 116° |
| 2026-04-26 07:27 | 47.15429 | -1.60275 | 97 ft | 2 kts | 117° |
| 2026-04-26 07:28 | 47.15435 | -1.60295 | 97 ft | 2 kts | 117° |
| 2026-04-26 07:28 | 47.15443 | -1.60314 | 96 ft | 2 kts | 117° |
| 2026-04-26 07:28 | 47.15449 | -1.60334 | 96 ft | 2 kts | 117° |
| 2026-04-26 07:28 | 47.15459 | -1.60352 | 96 ft | 2 kts | 141° |
| 2026-04-26 07:29 | 47.15472 | -1.60363 | 96 ft | 2 kts | 161° |
| 2026-04-26 07:29 | 47.15487 | -1.60367 | 96 ft | 2 kts | 180° |
| 2026-04-26 07:29 | 47.15501 | -1.60364 | 96 ft | 2 kts | 199° |
| 2026-04-26 07:29 | 47.15514 | -1.60354 | 96 ft | 2 kts | 219° |
| 2026-04-26 07:30 | 47.15524 | -1.60338 | 96 ft | 1 kts | 238° |
| 2026-04-26 07:30 | 47.15529 | -1.60323 | 96 ft | 2 kts | 248° |
| 2026-04-26 07:30 | 47.15532 | -1.60312 | 96 ft | 1 kts | 243° |
| 2026-04-26 07:30 | 47.15533 | -1.60311 | 96 ft | 0 kts | 243° |
| 2026-04-26 07:32 | 47.15530 | -1.60319 | 96 ft | 1 kts | 243° |
| 2026-04-26 07:32 | 47.15516 | -1.60360 | 96 ft | 7 kts | 243° |
| 2026-04-26 07:33 | 47.15533 | -1.60441 | 95 ft | 11 kts | 308° |
| 2026-04-26 07:33 | 47.15583 | -1.60534 | 95 ft | 9 kts | 304° |
| 2026-04-26 07:33 | 47.15558 | -1.60619 | 94 ft | 11 kts | 211° |
| 2026-04-26 07:33 | 47.15479 | -1.60682 | 95 ft | 14 kts | 207° |
| 2026-04-26 07:34 | 47.15377 | -1.60760 | 95 ft | 18 kts | 207° |
| 2026-04-26 07:34 | 47.15252 | -1.60856 | 95 ft | 21 kts | 207° |
| 2026-04-26 07:34 | 47.15114 | -1.60961 | 95 ft | 22 kts | 207° |
| 2026-04-26 07:34 | 47.14970 | -1.61070 | 94 ft | 23 kts | 207° |
| 2026-04-26 07:35 | 47.14820 | -1.61185 | 92 ft | 24 kts | 207° |
| 2026-04-26 07:35 | 47.14667 | -1.61302 | 90 ft | 25 kts | 207° |
| 2026-04-26 07:35 | 47.14503 | -1.61426 | 88 ft | 26 kts | 207° |
| 2026-04-26 07:35 | 47.14335 | -1.61554 | 85 ft | 27 kts | 207° |
| 2026-04-26 07:36 | 47.14202 | -1.61654 | 84 ft | 10 kts | 206° |
| 2026-04-26 07:36 | 47.14156 | -1.61739 | 83 ft | 12 kts | 252° |
| 2026-04-26 07:36 | 47.14138 | -1.61869 | 82 ft | 13 kts | 285° |
| 2026-04-26 07:36 | 47.14214 | -1.61913 | 83 ft | 13 kts | 22° |
| 2026-04-26 07:37 | 47.14310 | -1.61841 | 84 ft | 28 kts | 26° |
| 2026-04-26 07:37 | 47.14746 | -1.61508 | 90 ft | 109 kts | 26° |
| 2026-04-26 07:37 | 47.15585 | -1.60866 | 369 ft | 147 kts | 29° |
| 2026-04-26 07:37 | 47.16380 | -1.60050 | 1128 ft | 145 kts | 58° |
| 2026-04-26 07:38 | 47.16457 | -1.58646 | 1897 ft | 148 kts | 115° |
| 2026-04-26 07:38 | 47.15703 | -1.57573 | 2469 ft | 167 kts | 145° |
| 2026-04-26 07:38 | 47.14642 | -1.56649 | 2967 ft | 188 kts | 147° |
| 2026-04-26 07:38 | 47.13469 | -1.55642 | 3561 ft | 207 kts | 146° |
| 2026-04-26 07:39 | 47.12217 | -1.54462 | 4233 ft | 224 kts | 143° |
| 2026-04-26 07:39 | 47.10910 | -1.53155 | 4980 ft | 238 kts | 143° |
| 2026-04-26 07:39 | 47.09506 | -1.51720 | 5717 ft | 253 kts | 142° |
| 2026-04-26 07:39 | 47.08038 | -1.50225 | 6456 ft | 267 kts | 143° |
| 2026-04-26 07:40 | 47.06517 | -1.48597 | 7231 ft | 279 kts | 139° |
| 2026-04-26 07:40 | 47.05048 | -1.46734 | 8175 ft | 284 kts | 136° |
| 2026-04-26 07:40 | 47.03586 | -1.44781 | 9183 ft | 287 kts | 136° |
| 2026-04-26 07:40 | 47.02108 | -1.42857 | 10168 ft | 289 kts | 137° |
| 2026-04-26 07:41 | 47.00602 | -1.40910 | 11009 ft | 297 kts | 137° |
| 2026-04-26 07:41 | 46.99028 | -1.38836 | 11572 ft | 315 kts | 136° |
| 2026-04-26 07:41 | 46.97374 | -1.36650 | 12078 ft | 333 kts | 136° |
| 2026-04-26 07:41 | 46.95630 | -1.34360 | 12783 ft | 343 kts | 137° |
| 2026-04-26 07:42 | 46.93841 | -1.32022 | 13642 ft | 347 kts | 138° |
| 2026-04-26 07:42 | 46.92048 | -1.29686 | 14476 ft | 351 kts | 138° |
| 2026-04-26 07:42 | 46.90232 | -1.27328 | 15272 ft | 355 kts | 138° |
| 2026-04-26 07:42 | 46.88377 | -1.24922 | 16050 ft | 359 kts | 138° |
| 2026-04-26 07:43 | 46.86494 | -1.22482 | 16800 ft | 364 kts | 137° |
| 2026-04-26 07:43 | 46.84600 | -1.20031 | 17534 ft | 368 kts | 137° |
| 2026-04-26 07:43 | 46.82699 | -1.17567 | 18234 ft | 372 kts | 137° |
| 2026-04-26 07:43 | 46.80756 | -1.15045 | 18929 ft | 376 kts | 137° |
| 2026-04-26 07:44 | 46.78799 | -1.12505 | 19587 ft | 381 kts | 137° |
| 2026-04-26 07:44 | 46.76807 | -1.09924 | 20230 ft | 386 kts | 137° |
| 2026-04-26 07:44 | 46.74809 | -1.07336 | 20870 ft | 390 kts | 137° |
| 2026-04-26 07:44 | 46.72786 | -1.04720 | 21601 ft | 391 kts | 137° |
| 2026-04-26 07:45 | 46.70763 | -1.02108 | 22429 ft | 389 kts | 137° |
| 2026-04-26 07:45 | 46.68767 | -0.99533 | 23229 ft | 388 kts | 138° |
| 2026-04-26 07:45 | 46.66751 | -0.96935 | 23998 ft | 387 kts | 137° |
| 2026-04-26 07:45 | 46.64755 | -0.94366 | 24750 ft | 387 kts | 137° |
| 2026-04-26 07:46 | 46.62752 | -0.91792 | 25505 ft | 386 kts | 137° |
| 2026-04-26 07:46 | 46.60753 | -0.89226 | 26243 ft | 385 kts | 137° |
| 2026-04-26 07:46 | 46.58747 | -0.86652 | 26990 ft | 384 kts | 137° |
| 2026-04-26 07:46 | 46.56779 | -0.84120 | 27710 ft | 383 kts | 137° |
| 2026-04-26 07:47 | 46.54801 | -0.81567 | 28341 ft | 384 kts | 137° |
| 2026-04-26 07:47 | 46.52789 | -0.78971 | 28898 ft | 387 kts | 137° |
| 2026-04-26 07:47 | 46.50769 | -0.76368 | 29174 ft | 390 kts | 137° |
| 2026-04-26 07:48 | 46.46716 | -0.71159 | 29182 ft | 391 kts | 137° |
| 2026-04-26 07:48 | 46.42376 | -0.66466 | 29180 ft | 393 kts | 151° |
| 2026-04-26 07:49 | 46.37311 | -0.63573 | 29181 ft | 394 kts | 162° |
| 2026-04-26 07:49 | 46.32089 | -0.61222 | 29181 ft | 394 kts | 162° |
| 2026-04-26 07:50 | 46.24257 | -0.57663 | 29177 ft | 393 kts | 162° |
| 2026-04-26 07:50 | 46.19063 | -0.55284 | 29176 ft | 393 kts | 162° |
| 2026-04-26 07:51 | 46.13855 | -0.52898 | 29173 ft | 393 kts | 162° |
| 2026-04-26 07:51 | 46.08630 | -0.50507 | 29173 ft | 394 kts | 162° |
| 2026-04-26 07:52 | 46.03446 | -0.48140 | 29177 ft | 394 kts | 161° |
| 2026-04-26 07:52 | 45.98231 | -0.45764 | 29174 ft | 394 kts | 161° |
| 2026-04-26 07:53 | 45.93002 | -0.43385 | 29172 ft | 394 kts | 161° |
| 2026-04-26 07:53 | 45.87776 | -0.41015 | 29169 ft | 394 kts | 161° |
| 2026-04-26 07:54 | 45.82571 | -0.38656 | 29172 ft | 394 kts | 161° |
| 2026-04-26 07:54 | 45.77348 | -0.36295 | 29178 ft | 395 kts | 161° |
| 2026-04-26 07:55 | 45.72111 | -0.33931 | 29180 ft | 395 kts | 162° |
| 2026-04-26 07:55 | 45.66878 | -0.31509 | 29183 ft | 394 kts | 159° |
| 2026-04-26 07:56 | 45.61847 | -0.28351 | 29182 ft | 393 kts | 153° |
| 2026-04-26 07:56 | 45.56934 | -0.24937 | 29182 ft | 393 kts | 153° |
| 2026-04-26 07:57 | 45.51991 | -0.21512 | 29176 ft | 394 kts | 153° |
| 2026-04-26 07:57 | 45.47061 | -0.18110 | 29178 ft | 394 kts | 153° |
| 2026-04-26 07:58 | 45.42105 | -0.14698 | 29170 ft | 394 kts | 153° |
| 2026-04-26 07:58 | 45.37151 | -0.11295 | 29173 ft | 394 kts | 153° |
| 2026-04-26 07:59 | 45.32222 | -0.07917 | 29170 ft | 394 kts | 153° |
| 2026-04-26 07:59 | 45.27281 | -0.04541 | 29167 ft | 394 kts | 153° |
| 2026-04-26 08:00 | 45.22313 | -0.01150 | 29172 ft | 394 kts | 153° |
| 2026-04-26 08:00 | 45.17407 | 0.02193 | 29179 ft | 394 kts | 153° |
| 2026-04-26 08:01 | 45.12448 | 0.05566 | 29178 ft | 394 kts | 153° |
| 2026-04-26 08:01 | 45.07518 | 0.08912 | 29183 ft | 394 kts | 153° |
| 2026-04-26 08:02 | 45.02579 | 0.12257 | 29186 ft | 394 kts | 153° |
| 2026-04-26 08:02 | 44.97625 | 0.15604 | 29188 ft | 395 kts | 153° |
| 2026-04-26 08:03 | 44.92670 | 0.18945 | 29188 ft | 395 kts | 153° |
| 2026-04-26 08:03 | 44.87701 | 0.22293 | 29185 ft | 395 kts | 153° |
| 2026-04-26 08:04 | 44.82750 | 0.25622 | 29186 ft | 395 kts | 153° |
| 2026-04-26 08:04 | 44.77817 | 0.28930 | 29185 ft | 394 kts | 153° |
| 2026-04-26 08:05 | 44.72886 | 0.32232 | 29185 ft | 393 kts | 153° |
| 2026-04-26 08:05 | 44.67922 | 0.35551 | 29073 ft | 395 kts | 153° |
| 2026-04-26 08:06 | 44.65465 | 0.37189 | 28804 ft | 395 kts | 153° |
| 2026-04-26 08:06 | 44.62989 | 0.38839 | 28533 ft | 396 kts | 153° |
| 2026-04-26 08:06 | 44.60480 | 0.40510 | 28259 ft | 396 kts | 153° |
| 2026-04-26 08:06 | 44.58030 | 0.42141 | 27994 ft | 396 kts | 153° |
| 2026-04-26 08:07 | 44.55533 | 0.43801 | 27723 ft | 397 kts | 153° |
| 2026-04-26 08:07 | 44.53032 | 0.45461 | 27453 ft | 397 kts | 153° |
| 2026-04-26 08:07 | 44.50562 | 0.47098 | 27215 ft | 397 kts | 153° |
| 2026-04-26 08:07 | 44.48037 | 0.48771 | 27184 ft | 397 kts | 153° |
| 2026-04-26 08:08 | 44.45612 | 0.50491 | 27173 ft | 396 kts | 145° |
| 2026-04-26 08:08 | 44.43536 | 0.52986 | 27176 ft | 392 kts | 127° |
| 2026-04-26 08:08 | 44.42067 | 0.56129 | 27187 ft | 388 kts | 115° |
| 2026-04-26 08:08 | 44.40851 | 0.59508 | 27186 ft | 389 kts | 113° |
| 2026-04-26 08:09 | 44.39669 | 0.62877 | 27185 ft | 389 kts | 113° |
| 2026-04-26 08:09 | 44.38464 | 0.66287 | 27185 ft | 389 kts | 114° |
| 2026-04-26 08:09 | 44.37256 | 0.69666 | 27184 ft | 389 kts | 114° |
| 2026-04-26 08:09 | 44.36039 | 0.73043 | 27183 ft | 390 kts | 114° |
| 2026-04-26 08:10 | 44.34828 | 0.76385 | 27175 ft | 389 kts | 114° |
| 2026-04-26 08:10 | 44.33610 | 0.79736 | 27167 ft | 389 kts | 114° |
| 2026-04-26 08:10 | 44.32374 | 0.83124 | 27168 ft | 389 kts | 114° |
| 2026-04-26 08:10 | 44.31158 | 0.86451 | 27168 ft | 389 kts | 114° |
| 2026-04-26 08:11 | 44.29916 | 0.89845 | 27167 ft | 389 kts | 115° |
| 2026-04-26 08:11 | 44.28686 | 0.93199 | 27167 ft | 390 kts | 115° |
| 2026-04-26 08:11 | 44.27459 | 0.96542 | 27166 ft | 390 kts | 115° |
| 2026-04-26 08:11 | 44.26226 | 0.99898 | 27168 ft | 390 kts | 115° |
| 2026-04-26 08:12 | 44.24996 | 1.03238 | 27166 ft | 390 kts | 115° |
| 2026-04-26 08:12 | 44.23756 | 1.06600 | 27168 ft | 390 kts | 115° |
| 2026-04-26 08:12 | 44.22510 | 1.09977 | 27167 ft | 391 kts | 115° |
| 2026-04-26 08:12 | 44.21279 | 1.13311 | 27166 ft | 391 kts | 115° |
| 2026-04-26 08:13 | 44.20026 | 1.16701 | 27165 ft | 391 kts | 115° |
| 2026-04-26 08:13 | 44.18795 | 1.20025 | 27165 ft | 392 kts | 115° |
| 2026-04-26 08:13 | 44.17542 | 1.23405 | 27165 ft | 392 kts | 115° |
| 2026-04-26 08:13 | 44.16283 | 1.26793 | 27169 ft | 393 kts | 115° |
| 2026-04-26 08:14 | 44.15045 | 1.30125 | 27166 ft | 392 kts | 115° |
| 2026-04-26 08:14 | 44.13797 | 1.33478 | 27167 ft | 392 kts | 115° |
| 2026-04-26 08:14 | 44.12543 | 1.36846 | 27167 ft | 392 kts | 115° |
| 2026-04-26 08:14 | 44.11276 | 1.40244 | 27163 ft | 393 kts | 115° |
| 2026-04-26 08:15 | 44.10022 | 1.43600 | 27163 ft | 393 kts | 116° |
| 2026-04-26 08:15 | 44.08764 | 1.46964 | 27162 ft | 393 kts | 116° |
| 2026-04-26 08:15 | 44.07502 | 1.50330 | 27166 ft | 393 kts | 116° |
| 2026-04-26 08:15 | 44.06258 | 1.53650 | 27160 ft | 393 kts | 116° |
| 2026-04-26 08:16 | 44.04985 | 1.57040 | 27162 ft | 393 kts | 116° |
| 2026-04-26 08:16 | 44.03728 | 1.60386 | 27159 ft | 393 kts | 116° |
| 2026-04-26 08:16 | 44.02467 | 1.63741 | 27161 ft | 393 kts | 116° |
| 2026-04-26 08:16 | 44.01208 | 1.67079 | 27162 ft | 393 kts | 117° |
| 2026-04-26 08:17 | 43.99931 | 1.70470 | 27161 ft | 393 kts | 117° |
| 2026-04-26 08:17 | 43.98681 | 1.73780 | 27159 ft | 394 kts | 117° |
| 2026-04-26 08:17 | 43.97396 | 1.77178 | 27159 ft | 394 kts | 117° |
| 2026-04-26 08:17 | 43.96178 | 1.80557 | 27158 ft | 394 kts | 113° |
| 2026-04-26 08:18 | 43.95208 | 1.84064 | 27158 ft | 393 kts | 107° |
| 2026-04-26 08:18 | 43.94496 | 1.87711 | 27160 ft | 393 kts | 102° |
| 2026-04-26 08:18 | 43.93896 | 1.91398 | 27159 ft | 393 kts | 101° |
| 2026-04-26 08:18 | 43.93305 | 1.95118 | 27158 ft | 394 kts | 102° |
| 2026-04-26 08:19 | 43.92715 | 1.98769 | 27157 ft | 394 kts | 102° |
| 2026-04-26 08:19 | 43.92104 | 2.02506 | 27157 ft | 393 kts | 102° |
| 2026-04-26 08:19 | 43.91505 | 2.06142 | 27156 ft | 393 kts | 102° |
| 2026-04-26 08:19 | 43.90889 | 2.09857 | 27157 ft | 393 kts | 102° |
| 2026-04-26 08:20 | 43.90277 | 2.13543 | 27156 ft | 393 kts | 102° |
| 2026-04-26 08:20 | 43.89666 | 2.17211 | 27154 ft | 393 kts | 102° |
| 2026-04-26 08:20 | 43.89055 | 2.20867 | 27154 ft | 393 kts | 102° |
| 2026-04-26 08:20 | 43.88436 | 2.24566 | 27154 ft | 393 kts | 102° |
| 2026-04-26 08:21 | 43.87821 | 2.28235 | 27153 ft | 393 kts | 102° |
| 2026-04-26 08:21 | 43.87201 | 2.31927 | 27152 ft | 394 kts | 102° |
| 2026-04-26 08:21 | 43.86577 | 2.35632 | 27151 ft | 395 kts | 102° |
| 2026-04-26 08:21 | 43.85960 | 2.39281 | 27152 ft | 394 kts | 102° |
| 2026-04-26 08:22 | 43.85333 | 2.42990 | 26910 ft | 392 kts | 103° |
| 2026-04-26 08:22 | 43.84717 | 2.46627 | 26077 ft | 399 kts | 103° |
| 2026-04-26 08:22 | 43.84072 | 2.50424 | 25160 ft | 407 kts | 103° |
| 2026-04-26 08:22 | 43.83428 | 2.54204 | 24393 ft | 410 kts | 103° |
| 2026-04-26 08:23 | 43.82774 | 2.58031 | 23657 ft | 411 kts | 103° |
| 2026-04-26 08:23 | 43.82089 | 2.61851 | 22999 ft | 411 kts | 104° |
| 2026-04-26 08:23 | 43.81383 | 2.65663 | 22371 ft | 409 kts | 105° |
| 2026-04-26 08:23 | 43.80683 | 2.69414 | 21751 ft | 408 kts | 105° |
| 2026-04-26 08:24 | 43.79977 | 2.73197 | 21123 ft | 406 kts | 104° |
| 2026-04-26 08:24 | 43.79270 | 2.76999 | 20484 ft | 405 kts | 104° |
| 2026-04-26 08:24 | 43.78578 | 2.80714 | 19952 ft | 400 kts | 104° |
| 2026-04-26 08:24 | 43.77892 | 2.84395 | 19483 ft | 395 kts | 104° |
| 2026-04-26 08:25 | 43.77214 | 2.88058 | 19001 ft | 390 kts | 104° |
| 2026-04-26 08:25 | 43.76584 | 2.91671 | 18530 ft | 386 kts | 103° |
| 2026-04-26 08:25 | 43.75972 | 2.95256 | 18057 ft | 382 kts | 103° |
| 2026-04-26 08:25 | 43.75369 | 2.98766 | 17589 ft | 378 kts | 103° |
| 2026-04-26 08:26 | 43.74765 | 3.02266 | 17116 ft | 375 kts | 103° |
| 2026-04-26 08:26 | 43.74163 | 3.05720 | 16979 ft | 365 kts | 103° |
| 2026-04-26 08:26 | 43.73565 | 3.09139 | 17002 ft | 365 kts | 103° |
| 2026-04-26 08:26 | 43.72964 | 3.12566 | 17016 ft | 366 kts | 103° |
| 2026-04-26 08:27 | 43.72363 | 3.15979 | 17027 ft | 366 kts | 103° |
| 2026-04-26 08:27 | 43.71766 | 3.19364 | 17034 ft | 366 kts | 103° |
| 2026-04-26 08:27 | 43.71164 | 3.22775 | 16928 ft | 367 kts | 103° |
| 2026-04-26 08:27 | 43.70559 | 3.26188 | 16406 ft | 367 kts | 103° |
| 2026-04-26 08:28 | 43.69954 | 3.29598 | 15909 ft | 365 kts | 103° |
| 2026-04-26 08:28 | 43.69351 | 3.32983 | 15432 ft | 363 kts | 103° |
| 2026-04-26 08:28 | 43.68753 | 3.36339 | 14962 ft | 361 kts | 103° |
| 2026-04-26 08:28 | 43.68152 | 3.39702 | 14491 ft | 358 kts | 102° |
| 2026-04-26 08:29 | 43.67568 | 3.42982 | 14037 ft | 356 kts | 102° |
| 2026-04-26 08:29 | 43.66980 | 3.46319 | 13561 ft | 353 kts | 102° |
| 2026-04-26 08:29 | 43.66411 | 3.49553 | 13109 ft | 350 kts | 102° |
| 2026-04-26 08:29 | 43.65839 | 3.52797 | 12651 ft | 347 kts | 102° |
| 2026-04-26 08:30 | 43.65276 | 3.55984 | 12189 ft | 344 kts | 102° |
| 2026-04-26 08:30 | 43.64709 | 3.59191 | 11730 ft | 341 kts | 102° |
| 2026-04-26 08:30 | 43.64154 | 3.62314 | 11275 ft | 338 kts | 102° |
| 2026-04-26 08:30 | 43.63598 | 3.65435 | 10819 ft | 335 kts | 102° |
| 2026-04-26 08:31 | 43.63047 | 3.68517 | 10482 ft | 327 kts | 102° |
| 2026-04-26 08:31 | 43.62507 | 3.71532 | 10341 ft | 313 kts | 102° |
| 2026-04-26 08:31 | 43.61997 | 3.74383 | 10197 ft | 300 kts | 102° |
| 2026-04-26 08:31 | 43.61510 | 3.77100 | 9986 ft | 292 kts | 102° |
| 2026-04-26 08:32 | 43.61020 | 3.79836 | 9598 ft | 291 kts | 102° |
| 2026-04-26 08:32 | 43.60539 | 3.82526 | 9241 ft | 289 kts | 102° |
| 2026-04-26 08:32 | 43.60066 | 3.85160 | 8877 ft | 287 kts | 102° |
| 2026-04-26 08:32 | 43.59582 | 3.87845 | 8514 ft | 285 kts | 102° |
| 2026-04-26 08:33 | 43.59108 | 3.90471 | 8160 ft | 283 kts | 102° |
| 2026-04-26 08:33 | 43.58637 | 3.93075 | 7811 ft | 282 kts | 101° |
| 2026-04-26 08:33 | 43.58144 | 3.95702 | 7450 ft | 281 kts | 105° |
| 2026-04-26 08:33 | 43.57196 | 3.98030 | 7084 ft | 284 kts | 130° |
| 2026-04-26 08:34 | 43.55682 | 3.99741 | 6750 ft | 284 kts | 143° |
| 2026-04-26 08:34 | 43.54040 | 4.01278 | 6395 ft | 283 kts | 145° |
| 2026-04-26 08:34 | 43.52419 | 4.02775 | 6049 ft | 282 kts | 145° |
| 2026-04-26 08:34 | 43.50800 | 4.04287 | 5707 ft | 280 kts | 144° |
| 2026-04-26 08:35 | 43.49195 | 4.05805 | 5438 ft | 276 kts | 144° |
| 2026-04-26 08:35 | 43.47647 | 4.07280 | 5321 ft | 266 kts | 144° |
| 2026-04-26 08:35 | 43.46159 | 4.08703 | 5243 ft | 255 kts | 144° |
| 2026-04-26 08:35 | 43.44745 | 4.10055 | 5155 ft | 244 kts | 144° |
| 2026-04-26 08:36 | 43.43373 | 4.11369 | 5063 ft | 234 kts | 144° |
| 2026-04-26 08:36 | 43.42068 | 4.12619 | 4983 ft | 224 kts | 143° |
| 2026-04-26 08:36 | 43.40875 | 4.13908 | 4946 ft | 216 kts | 126° |
| 2026-04-26 08:36 | 43.40377 | 4.15788 | 4953 ft | 215 kts | 83° |
| 2026-04-26 08:37 | 43.40942 | 4.17624 | 4958 ft | 209 kts | 40° |
| 2026-04-26 08:37 | 43.42195 | 4.18524 | 4868 ft | 206 kts | 13° |
| 2026-04-26 08:37 | 43.43596 | 4.18975 | 4607 ft | 205 kts | 13° |
| 2026-04-26 08:37 | 43.44980 | 4.19424 | 4344 ft | 204 kts | 4° |
| 2026-04-26 08:38 | 43.46343 | 4.19056 | 4001 ft | 203 kts | 329° |
| 2026-04-26 08:38 | 43.47393 | 4.17766 | 3640 ft | 205 kts | 311° |
| 2026-04-26 08:38 | 43.48250 | 4.16216 | 3327 ft | 206 kts | 307° |
| 2026-04-26 08:38 | 43.49053 | 4.14621 | 2962 ft | 203 kts | 306° |
| 2026-04-26 08:39 | 43.49847 | 4.13014 | 2516 ft | 201 kts | 306° |
| 2026-04-26 08:39 | 43.50620 | 4.11459 | 2222 ft | 192 kts | 306° |
| 2026-04-26 08:39 | 43.51357 | 4.09985 | 2021 ft | 177 kts | 306° |
| 2026-04-26 08:39 | 43.52026 | 4.08652 | 1789 ft | 163 kts | 307° |
| 2026-04-26 08:40 | 43.52647 | 4.07419 | 1559 ft | 154 kts | 306° |
| 2026-04-26 08:40 | 43.53240 | 4.06241 | 1362 ft | 142 kts | 306° |
| 2026-04-26 08:40 | 43.53772 | 4.05182 | 1174 ft | 130 kts | 306° |
| 2026-04-26 08:40 | 43.54292 | 4.04151 | 1011 ft | 129 kts | 306° |
| 2026-04-26 08:41 | 43.54801 | 4.03139 | 856 ft | 129 kts | 306° |
| 2026-04-26 08:41 | 43.55308 | 4.02131 | 695 ft | 128 kts | 306° |
| 2026-04-26 08:41 | 43.55815 | 4.01124 | 528 ft | 127 kts | 305° |
| 2026-04-26 08:41 | 43.56321 | 4.00119 | 352 ft | 126 kts | 305° |
| 2026-04-26 08:42 | 43.56823 | 3.99124 | 190 ft | 126 kts | 305° |
| 2026-04-26 08:42 | 43.57321 | 3.98138 | 46 ft | 125 kts | 305° |
| 2026-04-26 08:42 | 43.57787 | 3.97226 | 17 ft | 98 kts | 306° |
| 2026-04-26 08:42 | 43.58078 | 3.96635 | 19 ft | 48 kts | 304° |
| 2026-04-26 08:43 | 43.58230 | 3.96330 | 20 ft | 35 kts | 304° |
| 2026-04-26 08:43 | 43.58315 | 3.96102 | 22 ft | 16 kts | 258° |
| 2026-04-26 08:43 | 43.58253 | 3.95974 | 22 ft | 16 kts | 200° |
| 2026-04-26 08:43 | 43.58166 | 3.96055 | 22 ft | 17 kts | 123° |
| 2026-04-26 08:44 | 43.58100 | 3.96188 | 20 ft | 15 kts | 124° |
| 2026-04-26 08:44 | 43.58048 | 3.96256 | 20 ft | 9 kts | 178° |
| 2026-04-26 08:44 | 43.57986 | 3.96208 | 20 ft | 10 kts | 233° |
| 2026-04-26 08:44 | 43.57948 | 3.96117 | 20 ft | 8 kts | 245° |
| 2026-04-26 08:45 | 43.57932 | 3.96041 | 20 ft | 3 kts | 255° |
| 2026-04-26 08:45 | 43.57929 | 3.96028 | 20 ft | 0 kts | 255° |